sensor_id;sensor_type;location;lat;lon;timestamp;P1;durP1;ratioP1;P2;durP2;ratioP2
15536;SDS011;7870;52.448;13.270;2022-09-13T00:01:37;6.40;;;4.38;;
15536;SDS011;7870;52.448;13.270;2022-09-13T00:04:04;3.90;;;3.50;;
15536;SDS011;7870;52.448;13.270;2022-09-13T00:06:30;5.60;;;3.78;;
15536;SDS011;7870;52.448;13.270;2022-09-13T00:08:57;4.28;;;3.60;;
15536;SDS011;7870;52.448;13.270;2022-09-13T00:11:25;5.32;;;3.80;;
15536;SDS011;7870;52.448;13.270;2022-09-13T00:13:52;6.45;;;4.43;;
15536;SDS011;7870;52.448;13.270;2022-09-13T00:16:19;5.13;;;3.83;;
15536;SDS011;7870;52.448;13.270;2022-09-13T00:18:46;5.53;;;4.03;;
15536;SDS011;7870;52.448;13.270;2022-09-13T00:21:14;4.85;;;3.80;;
15536;SDS011;7870;52.448;13.270;2022-09-13T00:23:47;5.57;;;4.13;;
15536;SDS011;7870;52.448;13.270;2022-09-13T00:26:16;6.28;;;3.75;;
15536;SDS011;7870;52.448;13.270;2022-09-13T00:28:42;6.18;;;4.03;;
15536;SDS011;7870;52.448;13.270;2022-09-13T00:31:10;5.05;;;3.97;;
15536;SDS011;7870;52.448;13.270;2022-09-13T00:33:37;5.13;;;4.10;;
15536;SDS011;7870;52.448;13.270;2022-09-13T00:36:08;4.63;;;3.17;;
15536;SDS011;7870;52.448;13.270;2022-09-13T00:38:35;4.72;;;4.22;;
15536;SDS011;7870;52.448;13.270;2022-09-13T00:41:03;5.53;;;3.45;;
15536;SDS011;7870;52.448;13.270;2022-09-13T00:46:09;4.60;;;3.65;;
15536;SDS011;7870;52.448;13.270;2022-09-13T00:48:36;5.35;;;3.42;;
15536;SDS011;7870;52.448;13.270;2022-09-13T00:51:03;3.83;;;3.42;;
15536;SDS011;7870;52.448;13.270;2022-09-13T00:53:32;5.70;;;4.05;;
15536;SDS011;7870;52.448;13.270;2022-09-13T00:58:31;6.22;;;3.65;;
15536;SDS011;7870;52.448;13.270;2022-09-13T01:00:58;6.97;;;3.88;;
15536;SDS011;7870;52.448;13.270;2022-09-13T01:03:26;4.15;;;3.63;;
15536;SDS011;7870;52.448;13.270;2022-09-13T01:05:57;4.18;;;3.78;;
15536;SDS011;7870;52.448;13.270;2022-09-13T01:08:26;4.13;;;3.53;;
15536;SDS011;7870;52.448;13.270;2022-09-13T01:10:54;6.47;;;3.92;;
15536;SDS011;7870;52.448;13.270;2022-09-13T01:13:22;3.90;;;3.50;;
15536;SDS011;7870;52.448;13.270;2022-09-13T01:15:49;5.20;;;4.22;;
15536;SDS011;7870;52.448;13.270;2022-09-13T01:18:16;4.25;;;3.80;;
15536;SDS011;7870;52.448;13.270;2022-09-13T01:23:25;4.22;;;3.47;;
15536;SDS011;7870;52.448;13.270;2022-09-13T01:28:40;5.20;;;4.13;;
15536;SDS011;7870;52.448;13.270;2022-09-13T01:31:28;3.92;;;3.50;;
15536;SDS011;7870;52.448;13.270;2022-09-13T01:34:05;4.75;;;3.85;;
15536;SDS011;7870;52.448;13.270;2022-09-13T01:36:42;4.50;;;4.10;;
15536;SDS011;7870;52.448;13.270;2022-09-13T01:39:26;6.25;;;4.82;;
15536;SDS011;7870;52.448;13.270;2022-09-13T01:44:58;5.57;;;4.22;;
15536;SDS011;7870;52.448;13.270;2022-09-13T01:47:29;5.53;;;4.20;;
15536;SDS011;7870;52.448;13.270;2022-09-13T01:52:38;4.88;;;4.32;;
15536;SDS011;7870;52.448;13.270;2022-09-13T01:55:13;5.47;;;4.78;;
15536;SDS011;7870;52.448;13.270;2022-09-13T01:57:42;4.40;;;4.00;;
15536;SDS011;7870;52.448;13.270;2022-09-13T02:00:11;4.82;;;4.32;;
15536;SDS011;7870;52.448;13.270;2022-09-13T02:05:23;5.40;;;4.90;;
15536;SDS011;7870;52.448;13.270;2022-09-13T02:10:24;6.63;;;4.43;;
15536;SDS011;7870;52.448;13.270;2022-09-13T02:12:51;5.70;;;4.35;;
15536;SDS011;7870;52.448;13.270;2022-09-13T02:15:20;5.18;;;4.68;;
15536;SDS011;7870;52.448;13.270;2022-09-13T02:17:52;5.28;;;4.78;;
15536;SDS011;7870;52.448;13.270;2022-09-13T02:20:22;6.47;;;4.57;;
15536;SDS011;7870;52.448;13.270;2022-09-13T02:22:51;5.18;;;4.65;;
15536;SDS011;7870;52.448;13.270;2022-09-13T02:25:19;6.18;;;4.90;;
15536;SDS011;7870;52.448;13.270;2022-09-13T02:27:48;6.38;;;5.25;;
15536;SDS011;7870;52.448;13.270;2022-09-13T02:30:16;6.18;;;5.15;;
15536;SDS011;7870;52.448;13.270;2022-09-13T02:32:52;5.15;;;4.70;;
15536;SDS011;7870;52.448;13.270;2022-09-13T02:35:25;4.95;;;4.45;;
15536;SDS011;7870;52.448;13.270;2022-09-13T02:38:03;6.05;;;5.28;;
15536;SDS011;7870;52.448;13.270;2022-09-13T02:40:39;5.78;;;4.80;;
15536;SDS011;7870;52.448;13.270;2022-09-13T02:43:12;6.00;;;5.40;;
15536;SDS011;7870;52.448;13.270;2022-09-13T02:45:44;5.78;;;5.10;;
15536;SDS011;7870;52.448;13.270;2022-09-13T02:48:18;5.43;;;4.82;;
15536;SDS011;7870;52.448;13.270;2022-09-13T02:53:28;5.35;;;4.85;;
15536;SDS011;7870;52.448;13.270;2022-09-13T02:56:10;5.32;;;4.47;;
15536;SDS011;7870;52.448;13.270;2022-09-13T02:58:43;5.35;;;4.85;;
15536;SDS011;7870;52.448;13.270;2022-09-13T03:01:10;7.65;;;4.82;;
15536;SDS011;7870;52.448;13.270;2022-09-13T03:03:38;5.40;;;4.45;;
15536;SDS011;7870;52.448;13.270;2022-09-13T03:06:04;5.45;;;4.95;;
15536;SDS011;7870;52.448;13.270;2022-09-13T03:08:31;5.28;;;4.78;;
15536;SDS011;7870;52.448;13.270;2022-09-13T03:16:32;6.78;;;5.53;;
15536;SDS011;7870;52.448;13.270;2022-09-13T03:21:38;6.40;;;5.80;;
15536;SDS011;7870;52.448;13.270;2022-09-13T03:27:02;5.63;;;4.95;;
15536;SDS011;7870;52.448;13.270;2022-09-13T03:29:36;5.25;;;4.75;;
15536;SDS011;7870;52.448;13.270;2022-09-13T03:34:33;8.43;;;5.10;;
15536;SDS011;7870;52.448;13.270;2022-09-13T03:37:08;6.22;;;5.53;;
15536;SDS011;7870;52.448;13.270;2022-09-13T03:39:42;6.40;;;5.80;;
15536;SDS011;7870;52.448;13.270;2022-09-13T03:42:19;7.82;;;5.38;;
15536;SDS011;7870;52.448;13.270;2022-09-13T03:44:47;5.53;;;5.03;;
15536;SDS011;7870;52.448;13.270;2022-09-13T03:47:14;5.63;;;5.03;;
15536;SDS011;7870;52.448;13.270;2022-09-13T03:49:41;6.20;;;5.60;;
15536;SDS011;7870;52.448;13.270;2022-09-13T03:52:08;7.40;;;5.93;;
15536;SDS011;7870;52.448;13.270;2022-09-13T03:54:35;6.30;;;5.22;;
15536;SDS011;7870;52.448;13.270;2022-09-13T03:59:35;7.10;;;6.43;;
15536;SDS011;7870;52.448;13.270;2022-09-13T04:02:04;6.25;;;5.13;;
15536;SDS011;7870;52.448;13.270;2022-09-13T04:04:31;6.35;;;5.55;;
15536;SDS011;7870;52.448;13.270;2022-09-13T04:06:58;6.57;;;5.95;;
15536;SDS011;7870;52.448;13.270;2022-09-13T04:09:27;8.02;;;6.13;;
15536;SDS011;7870;52.448;13.270;2022-09-13T04:11:53;6.45;;;5.80;;
15536;SDS011;7870;52.448;13.270;2022-09-13T04:14:20;6.30;;;5.70;;
15536;SDS011;7870;52.448;13.270;2022-09-13T04:16:46;7.30;;;5.95;;
15536;SDS011;7870;52.448;13.270;2022-09-13T04:19:13;8.40;;;6.13;;
15536;SDS011;7870;52.448;13.270;2022-09-13T04:21:39;6.35;;;5.63;;
15536;SDS011;7870;52.448;13.270;2022-09-13T04:24:06;7.20;;;6.15;;
15536;SDS011;7870;52.448;13.270;2022-09-13T04:26:32;6.28;;;5.68;;
15536;SDS011;7870;52.448;13.270;2022-09-13T04:29:00;7.43;;;6.72;;
15536;SDS011;7870;52.448;13.270;2022-09-13T04:31:27;7.72;;;5.80;;
15536;SDS011;7870;52.448;13.270;2022-09-13T04:33:53;6.22;;;5.60;;
15536;SDS011;7870;52.448;13.270;2022-09-13T04:36:20;6.78;;;5.65;;
15536;SDS011;7870;52.448;13.270;2022-09-13T04:38:46;7.93;;;6.00;;
15536;SDS011;7870;52.448;13.270;2022-09-13T04:41:13;8.73;;;6.25;;
15536;SDS011;7870;52.448;13.270;2022-09-13T04:43:40;9.10;;;6.93;;
15536;SDS011;7870;52.448;13.270;2022-09-13T04:46:07;6.60;;;6.00;;
15536;SDS011;7870;52.448;13.270;2022-09-13T04:48:33;7.15;;;6.45;;
15536;SDS011;7870;52.448;13.270;2022-09-13T04:51:03;7.55;;;6.72;;
15536;SDS011;7870;52.448;13.270;2022-09-13T04:53:30;6.80;;;6.10;;
15536;SDS011;7870;52.448;13.270;2022-09-13T04:56:00;7.68;;;6.15;;
15536;SDS011;7870;52.448;13.270;2022-09-13T04:58:27;6.78;;;6.05;;
15536;SDS011;7870;52.448;13.270;2022-09-13T05:00:53;6.85;;;6.18;;
15536;SDS011;7870;52.448;13.270;2022-09-13T05:03:22;6.68;;;5.78;;
15536;SDS011;7870;52.448;13.270;2022-09-13T05:05:48;7.50;;;6.70;;
15536;SDS011;7870;52.448;13.270;2022-09-13T05:08:14;7.10;;;6.40;;
15536;SDS011;7870;52.448;13.270;2022-09-13T05:10:41;7.03;;;6.32;;
15536;SDS011;7870;52.448;13.270;2022-09-13T05:13:07;6.78;;;5.75;;
15536;SDS011;7870;52.448;13.270;2022-09-13T05:15:34;7.13;;;6.38;;
15536;SDS011;7870;52.448;13.270;2022-09-13T05:18:00;6.95;;;6.13;;
15536;SDS011;7870;52.448;13.270;2022-09-13T05:20:26;6.88;;;5.85;;
15536;SDS011;7870;52.448;13.270;2022-09-13T05:22:54;6.63;;;5.95;;
15536;SDS011;7870;52.448;13.270;2022-09-13T05:25:20;6.60;;;6.00;;
15536;SDS011;7870;52.448;13.270;2022-09-13T05:27:51;6.97;;;6.13;;
15536;SDS011;7870;52.448;13.270;2022-09-13T05:30:17;7.25;;;6.28;;
15536;SDS011;7870;52.448;13.270;2022-09-13T05:32:44;7.82;;;6.20;;
15536;SDS011;7870;52.448;13.270;2022-09-13T05:35:10;6.93;;;6.25;;
15536;SDS011;7870;52.448;13.270;2022-09-13T05:37:37;14.07;;;8.77;;
15536;SDS011;7870;52.448;13.270;2022-09-13T05:40:03;6.75;;;6.05;;
15536;SDS011;7870;52.448;13.270;2022-09-13T05:42:37;7.80;;;5.95;;
15536;SDS011;7870;52.448;13.270;2022-09-13T05:45:04;6.88;;;5.97;;
15536;SDS011;7870;52.448;13.270;2022-09-13T05:47:32;7.55;;;6.28;;
15536;SDS011;7870;52.448;13.270;2022-09-13T05:49:58;7.60;;;6.68;;
15536;SDS011;7870;52.448;13.270;2022-09-13T05:52:37;13.45;;;9.02;;
15536;SDS011;7870;52.448;13.270;2022-09-13T05:55:03;9.60;;;8.23;;
15536;SDS011;7870;52.448;13.270;2022-09-13T05:57:29;10.10;;;9.10;;
15536;SDS011;7870;52.448;13.270;2022-09-13T05:59:56;9.88;;;8.82;;
15536;SDS011;7870;52.448;13.270;2022-09-13T06:02:22;10.68;;;8.40;;
15536;SDS011;7870;52.448;13.270;2022-09-13T06:04:49;10.13;;;9.10;;
15536;SDS011;7870;52.448;13.270;2022-09-13T06:07:16;9.98;;;8.98;;
15536;SDS011;7870;52.448;13.270;2022-09-13T06:09:42;10.23;;;9.13;;
15536;SDS011;7870;52.448;13.270;2022-09-13T06:12:09;11.57;;;9.98;;
15536;SDS011;7870;52.448;13.270;2022-09-13T06:14:35;11.55;;;8.70;;
15536;SDS011;7870;52.448;13.270;2022-09-13T06:17:02;11.95;;;9.95;;
15536;SDS011;7870;52.448;13.270;2022-09-13T06:19:28;12.00;;;9.32;;
15536;SDS011;7870;52.448;13.270;2022-09-13T06:21:54;13.25;;;12.02;;
15536;SDS011;7870;52.448;13.270;2022-09-13T06:24:21;11.30;;;10.20;;
15536;SDS011;7870;52.448;13.270;2022-09-13T06:26:47;11.45;;;10.30;;
15536;SDS011;7870;52.448;13.270;2022-09-13T06:29:14;11.48;;;10.35;;
15536;SDS011;7870;52.448;13.270;2022-09-13T06:31:40;11.30;;;10.05;;
15536;SDS011;7870;52.448;13.270;2022-09-13T06:34:11;12.18;;;11.07;;
15536;SDS011;7870;52.448;13.270;2022-09-13T06:36:39;13.45;;;10.80;;
15536;SDS011;7870;52.448;13.270;2022-09-13T06:39:06;13.20;;;11.90;;
15536;SDS011;7870;52.448;13.270;2022-09-13T06:41:33;13.18;;;12.02;;
15536;SDS011;7870;52.448;13.270;2022-09-13T06:43:59;11.35;;;10.30;;
15536;SDS011;7870;52.448;13.270;2022-09-13T06:46:27;11.95;;;10.90;;
15536;SDS011;7870;52.448;13.270;2022-09-13T06:48:54;12.93;;;11.57;;
15536;SDS011;7870;52.448;13.270;2022-09-13T06:51:21;12.73;;;11.43;;
15536;SDS011;7870;52.448;13.270;2022-09-13T06:53:48;11.48;;;10.27;;
15536;SDS011;7870;52.448;13.270;2022-09-13T06:56:16;13.30;;;11.98;;
15536;SDS011;7870;52.448;13.270;2022-09-13T06:58:43;11.90;;;10.50;;
15536;SDS011;7870;52.448;13.270;2022-09-13T07:01:14;12.65;;;11.38;;
15536;SDS011;7870;52.448;13.270;2022-09-13T07:03:42;13.35;;;12.02;;
15536;SDS011;7870;52.448;13.270;2022-09-13T07:06:13;14.48;;;12.95;;
15536;SDS011;7870;52.448;13.270;2022-09-13T07:08:45;13.50;;;12.27;;
15536;SDS011;7870;52.448;13.270;2022-09-13T07:11:13;13.32;;;11.90;;
15536;SDS011;7870;52.448;13.270;2022-09-13T07:13:39;12.90;;;11.55;;
15536;SDS011;7870;52.448;13.270;2022-09-13T07:16:09;12.82;;;11.60;;
15536;SDS011;7870;52.448;13.270;2022-09-13T07:18:36;14.15;;;12.73;;
15536;SDS011;7870;52.448;13.270;2022-09-13T07:21:07;12.93;;;11.38;;
15536;SDS011;7870;52.448;13.270;2022-09-13T07:23:34;12.00;;;10.38;;
15536;SDS011;7870;52.448;13.270;2022-09-13T07:26:01;11.27;;;9.98;;
15536;SDS011;7870;52.448;13.270;2022-09-13T07:28:34;11.70;;;10.60;;
15536;SDS011;7870;52.448;13.270;2022-09-13T07:31:19;13.30;;;11.30;;
15536;SDS011;7870;52.448;13.270;2022-09-13T07:33:47;12.40;;;11.20;;
15536;SDS011;7870;52.448;13.270;2022-09-13T07:36:14;12.35;;;11.23;;
15536;SDS011;7870;52.448;13.270;2022-09-13T07:38:41;11.02;;;9.98;;
15536;SDS011;7870;52.448;13.270;2022-09-13T07:41:10;11.40;;;9.65;;
15536;SDS011;7870;52.448;13.270;2022-09-13T07:43:36;12.27;;;11.07;;
15536;SDS011;7870;52.448;13.270;2022-09-13T07:46:04;11.95;;;10.77;;
15536;SDS011;7870;52.448;13.270;2022-09-13T07:48:32;13.30;;;11.10;;
15536;SDS011;7870;52.448;13.270;2022-09-13T07:51:03;11.35;;;10.25;;
15536;SDS011;7870;52.448;13.270;2022-09-13T07:53:31;13.00;;;11.73;;
15536;SDS011;7870;52.448;13.270;2022-09-13T07:58:27;12.48;;;10.00;;
15536;SDS011;7870;52.448;13.270;2022-09-13T08:00:54;11.48;;;10.32;;
15536;SDS011;7870;52.448;13.270;2022-09-13T08:03:20;11.45;;;10.18;;
15536;SDS011;7870;52.448;13.270;2022-09-13T08:05:46;12.60;;;11.40;;
15536;SDS011;7870;52.448;13.270;2022-09-13T08:08:13;12.02;;;10.82;;
15536;SDS011;7870;52.448;13.270;2022-09-13T08:10:39;11.07;;;10.02;;
15536;SDS011;7870;52.448;13.270;2022-09-13T08:13:06;12.10;;;10.90;;
15536;SDS011;7870;52.448;13.270;2022-09-13T08:15:32;11.55;;;10.02;;
15536;SDS011;7870;52.448;13.270;2022-09-13T08:17:59;11.32;;;10.23;;
15536;SDS011;7870;52.448;13.270;2022-09-13T08:20:25;10.52;;;9.50;;
15536;SDS011;7870;52.448;13.270;2022-09-13T08:22:51;12.65;;;9.07;;
15536;SDS011;7870;52.448;13.270;2022-09-13T08:25:18;12.60;;;11.30;;
15536;SDS011;7870;52.448;13.270;2022-09-13T08:27:44;11.48;;;10.35;;
15536;SDS011;7870;52.448;13.270;2022-09-13T08:30:11;10.95;;;9.95;;
15536;SDS011;7870;52.448;13.270;2022-09-13T08:32:37;10.82;;;9.68;;
15536;SDS011;7870;52.448;13.270;2022-09-13T08:35:04;10.55;;;9.45;;
15536;SDS011;7870;52.448;13.270;2022-09-13T08:37:30;14.00;;;9.50;;
15536;SDS011;7870;52.448;13.270;2022-09-13T08:39:57;12.20;;;10.10;;
15536;SDS011;7870;52.448;13.270;2022-09-13T08:44:56;9.68;;;8.75;;
15536;SDS011;7870;52.448;13.270;2022-09-13T08:50:10;11.98;;;9.15;;
15536;SDS011;7870;52.448;13.270;2022-09-13T08:52:46;11.32;;;9.07;;
15536;SDS011;7870;52.448;13.270;2022-09-13T08:55:22;9.73;;;8.82;;
15536;SDS011;7870;52.448;13.270;2022-09-13T08:57:52;10.20;;;9.18;;
15536;SDS011;7870;52.448;13.270;2022-09-13T09:00:21;10.45;;;9.25;;
15536;SDS011;7870;52.448;13.270;2022-09-13T09:05:21;9.60;;;7.55;;
15536;SDS011;7870;52.448;13.270;2022-09-13T09:08:02;8.90;;;7.65;;
15536;SDS011;7870;52.448;13.270;2022-09-13T09:10:35;9.13;;;7.72;;
15536;SDS011;7870;52.448;13.270;2022-09-13T09:15:40;8.18;;;7.38;;
15536;SDS011;7870;52.448;13.270;2022-09-13T09:20:40;8.85;;;7.95;;
15536;SDS011;7870;52.448;13.270;2022-09-13T09:23:17;8.25;;;6.95;;
15536;SDS011;7870;52.448;13.270;2022-09-13T09:25:47;9.73;;;7.88;;
15536;SDS011;7870;52.448;13.270;2022-09-13T09:28:16;7.78;;;7.07;;
15536;SDS011;7870;52.448;13.270;2022-09-13T09:33:27;7.30;;;6.60;;
15536;SDS011;7870;52.448;13.270;2022-09-13T09:36:38;9.80;;;6.68;;
15536;SDS011;7870;52.448;13.270;2022-09-13T09:38:45;8.60;;;6.93;;
15536;SDS011;7870;52.448;13.270;2022-09-13T09:41:13;7.93;;;7.15;;
15536;SDS011;7870;52.448;13.270;2022-09-13T09:43:42;7.90;;;6.70;;
15536;SDS011;7870;52.448;13.270;2022-09-13T09:46:10;7.28;;;6.35;;
15536;SDS011;7870;52.448;13.270;2022-09-13T09:48:41;8.15;;;5.68;;
15536;SDS011;7870;52.448;13.270;2022-09-13T09:51:08;7.78;;;6.10;;
15536;SDS011;7870;52.448;13.270;2022-09-13T09:53:38;6.25;;;5.65;;
15536;SDS011;7870;52.448;13.270;2022-09-13T09:56:22;8.15;;;6.00;;
15536;SDS011;7870;52.448;13.270;2022-09-13T09:58:49;7.43;;;5.45;;
15536;SDS011;7870;52.448;13.270;2022-09-13T10:01:33;8.35;;;5.85;;
15536;SDS011;7870;52.448;13.270;2022-09-13T10:06:36;6.03;;;5.38;;
15536;SDS011;7870;52.448;13.270;2022-09-13T10:11:40;7.35;;;4.93;;
15536;SDS011;7870;52.448;13.270;2022-09-13T10:14:25;8.65;;;5.28;;
15536;SDS011;7870;52.448;13.270;2022-09-13T10:19:30;8.45;;;5.25;;
15536;SDS011;7870;52.448;13.270;2022-09-13T10:22:04;8.88;;;5.18;;
15536;SDS011;7870;52.448;13.270;2022-09-13T10:24:31;5.57;;;4.57;;
15536;SDS011;7870;52.448;13.270;2022-09-13T10:26:58;6.22;;;5.20;;
15536;SDS011;7870;52.448;13.270;2022-09-13T10:29:25;7.13;;;4.80;;
15536;SDS011;7870;52.448;13.270;2022-09-13T10:31:52;7.82;;;5.50;;
15536;SDS011;7870;52.448;13.270;2022-09-13T10:34:22;6.45;;;5.75;;
15536;SDS011;7870;52.448;13.270;2022-09-13T10:36:53;7.20;;;5.57;;
15536;SDS011;7870;52.448;13.270;2022-09-13T10:39:21;8.48;;;5.72;;
15536;SDS011;7870;52.448;13.270;2022-09-13T10:41:50;5.97;;;5.35;;
15536;SDS011;7870;52.448;13.270;2022-09-13T10:44:22;7.60;;;5.32;;
15536;SDS011;7870;52.448;13.270;2022-09-13T10:46:49;6.53;;;5.05;;
15536;SDS011;7870;52.448;13.270;2022-09-13T10:52:01;6.05;;;5.32;;
15536;SDS011;7870;52.448;13.270;2022-09-13T10:54:47;8.05;;;4.63;;
15536;SDS011;7870;52.448;13.270;2022-09-13T11:00:04;7.93;;;5.55;;
15536;SDS011;7870;52.448;13.270;2022-09-13T11:02:47;6.97;;;5.45;;
15536;SDS011;7870;52.448;13.270;2022-09-13T11:05:19;7.60;;;6.88;;
15536;SDS011;7870;52.448;13.270;2022-09-13T11:10:47;9.38;;;8.48;;
15536;SDS011;7870;52.448;13.270;2022-09-13T11:13:20;8.68;;;7.60;;
15536;SDS011;7870;52.448;13.270;2022-09-13T11:15:53;10.15;;;8.15;;
15536;SDS011;7870;52.448;13.270;2022-09-13T11:18:31;9.45;;;8.48;;
15536;SDS011;7870;52.448;13.270;2022-09-13T11:21:06;11.07;;;9.98;;
15536;SDS011;7870;52.448;13.270;2022-09-13T11:23:53;11.57;;;10.43;;
15536;SDS011;7870;52.448;13.270;2022-09-13T11:26:33;12.23;;;11.00;;
15536;SDS011;7870;52.448;13.270;2022-09-13T11:29:17;14.40;;;11.15;;
15536;SDS011;7870;52.448;13.270;2022-09-13T11:34:30;12.85;;;11.35;;
15536;SDS011;7870;52.448;13.270;2022-09-13T11:37:14;13.68;;;12.27;;
15536;SDS011;7870;52.448;13.270;2022-09-13T11:39:48;12.43;;;10.60;;
15536;SDS011;7870;52.448;13.270;2022-09-13T11:44:50;13.20;;;11.82;;
15536;SDS011;7870;52.448;13.270;2022-09-13T11:57:43;13.52;;;11.60;;
15536;SDS011;7870;52.448;13.270;2022-09-13T12:00:18;13.93;;;12.68;;
15536;SDS011;7870;52.448;13.270;2022-09-13T12:05:35;11.77;;;10.57;;
15536;SDS011;7870;52.448;13.270;2022-09-13T12:08:06;12.38;;;11.20;;
15536;SDS011;7870;52.448;13.270;2022-09-13T12:10:38;11.27;;;10.27;;
15536;SDS011;7870;52.448;13.270;2022-09-13T12:13:11;10.73;;;9.73;;
15536;SDS011;7870;52.448;13.270;2022-09-13T12:15:40;10.70;;;9.70;;
15536;SDS011;7870;52.448;13.270;2022-09-13T12:20:35;11.98;;;10.20;;
15536;SDS011;7870;52.448;13.270;2022-09-13T12:23:05;11.90;;;10.75;;
15536;SDS011;7870;52.448;13.270;2022-09-13T12:25:47;11.57;;;10.50;;
15536;SDS011;7870;52.448;13.270;2022-09-13T12:28:17;11.30;;;10.10;;
15536;SDS011;7870;52.448;13.270;2022-09-13T12:30:46;11.43;;;10.15;;
15536;SDS011;7870;52.448;13.270;2022-09-13T12:33:14;11.38;;;10.27;;
15536;SDS011;7870;52.448;13.270;2022-09-13T12:35:48;11.70;;;10.35;;
15536;SDS011;7870;52.448;13.270;2022-09-13T12:43:22;11.45;;;10.35;;
15536;SDS011;7870;52.448;13.270;2022-09-13T12:53:55;10.80;;;9.80;;
15536;SDS011;7870;52.448;13.270;2022-09-13T12:56:31;11.20;;;10.13;;
15536;SDS011;7870;52.448;13.270;2022-09-13T13:01:26;10.32;;;9.32;;
15536;SDS011;7870;52.448;13.270;2022-09-13T13:04:03;10.20;;;9.20;;
15536;SDS011;7870;52.448;13.270;2022-09-13T13:06:34;11.73;;;10.55;;
15536;SDS011;7870;52.448;13.270;2022-09-13T13:09:03;11.20;;;10.10;;
15536;SDS011;7870;52.448;13.270;2022-09-13T13:11:39;11.20;;;9.63;;
15536;SDS011;7870;52.448;13.270;2022-09-13T13:14:10;12.23;;;11.02;;
15536;SDS011;7870;52.448;13.270;2022-09-13T13:16:50;13.45;;;10.55;;
15536;SDS011;7870;52.448;13.270;2022-09-13T13:19:26;12.98;;;9.70;;
15536;SDS011;7870;52.448;13.270;2022-09-13T13:21:54;11.90;;;10.75;;
15536;SDS011;7870;52.448;13.270;2022-09-13T13:26:48;12.77;;;10.57;;
15536;SDS011;7870;52.448;13.270;2022-09-13T13:34:30;12.60;;;11.40;;
15536;SDS011;7870;52.448;13.270;2022-09-13T13:37:00;12.88;;;11.55;;
15536;SDS011;7870;52.448;13.270;2022-09-13T13:42:00;12.27;;;11.15;;
15536;SDS011;7870;52.448;13.270;2022-09-13T13:47:40;12.52;;;11.23;;
15536;SDS011;7870;52.448;13.270;2022-09-13T13:49:42;11.82;;;9.30;;
15536;SDS011;7870;52.448;13.270;2022-09-13T13:59:52;11.60;;;10.55;;
15536;SDS011;7870;52.448;13.270;2022-09-13T14:02:21;10.50;;;9.52;;
15536;SDS011;7870;52.448;13.270;2022-09-13T14:05:00;12.32;;;10.02;;
15536;SDS011;7870;52.448;13.270;2022-09-13T14:10:10;12.80;;;9.70;;
15536;SDS011;7870;52.448;13.270;2022-09-13T14:15:25;10.70;;;9.60;;
15536;SDS011;7870;52.448;13.270;2022-09-13T14:20:23;11.30;;;10.20;;
15536;SDS011;7870;52.448;13.270;2022-09-13T14:22:50;9.10;;;8.02;;
15536;SDS011;7870;52.448;13.270;2022-09-13T14:27:46;8.63;;;7.82;;
15536;SDS011;7870;52.448;13.270;2022-09-13T14:30:17;9.60;;;8.60;;
15536;SDS011;7870;52.448;13.270;2022-09-13T14:32:51;12.48;;;8.70;;
15536;SDS011;7870;52.448;13.270;2022-09-13T14:35:28;13.65;;;11.07;;
15536;SDS011;7870;52.448;13.270;2022-09-13T14:38:08;11.35;;;10.20;;
15536;SDS011;7870;52.448;13.270;2022-09-13T14:40:35;12.43;;;10.23;;
15536;SDS011;7870;52.448;13.270;2022-09-13T14:43:17;13.95;;;11.10;;
15536;SDS011;7870;52.448;13.270;2022-09-13T14:45:45;10.60;;;9.70;;
15536;SDS011;7870;52.448;13.270;2022-09-13T14:48:23;11.48;;;10.30;;
15536;SDS011;7870;52.448;13.270;2022-09-13T14:50:52;10.93;;;9.60;;
15536;SDS011;7870;52.448;13.270;2022-09-13T14:53:21;12.90;;;9.60;;
15536;SDS011;7870;52.448;13.270;2022-09-13T14:55:54;10.65;;;9.55;;
15536;SDS011;7870;52.448;13.270;2022-09-13T14:58:23;9.73;;;8.75;;
15536;SDS011;7870;52.448;13.270;2022-09-13T15:00:54;9.20;;;8.27;;
15536;SDS011;7870;52.448;13.270;2022-09-13T15:03:20;10.18;;;9.10;;
15536;SDS011;7870;52.448;13.270;2022-09-13T15:05:51;11.73;;;9.70;;
15536;SDS011;7870;52.448;13.270;2022-09-13T15:11:01;8.57;;;7.78;;
15536;SDS011;7870;52.448;13.270;2022-09-13T15:13:27;9.68;;;8.77;;
15536;SDS011;7870;52.448;13.270;2022-09-13T15:15:54;8.52;;;7.80;;
15536;SDS011;7870;52.448;13.270;2022-09-13T15:20:53;9.25;;;7.25;;
15536;SDS011;7870;52.448;13.270;2022-09-13T15:23:33;7.47;;;6.63;;
15536;SDS011;7870;52.448;13.270;2022-09-13T15:26:01;6.45;;;5.75;;
15536;SDS011;7870;52.448;13.270;2022-09-13T15:31:08;6.40;;;5.03;;
15536;SDS011;7870;52.448;13.270;2022-09-13T15:33:36;7.43;;;4.90;;
15536;SDS011;7870;52.448;13.270;2022-09-13T15:36:13;7.47;;;5.32;;
15536;SDS011;7870;52.448;13.270;2022-09-13T15:38:56;5.32;;;4.20;;
15536;SDS011;7870;52.448;13.270;2022-09-13T15:41:27;5.38;;;4.53;;
15536;SDS011;7870;52.448;13.270;2022-09-13T15:43:53;5.78;;;5.18;;
15536;SDS011;7870;52.448;13.270;2022-09-13T15:46:20;5.43;;;4.53;;
15536;SDS011;7870;52.448;13.270;2022-09-13T15:48:49;7.28;;;4.68;;
15536;SDS011;7870;52.448;13.270;2022-09-13T15:51:16;5.93;;;4.25;;
15536;SDS011;7870;52.448;13.270;2022-09-13T15:53:44;4.75;;;4.25;;
15536;SDS011;7870;52.448;13.270;2022-09-13T15:56:15;4.78;;;4.10;;
15536;SDS011;7870;52.448;13.270;2022-09-13T15:58:42;5.53;;;4.10;;
15536;SDS011;7870;52.448;13.270;2022-09-13T16:01:09;6.60;;;4.55;;
15536;SDS011;7870;52.448;13.270;2022-09-13T16:03:37;5.80;;;3.78;;
15536;SDS011;7870;52.448;13.270;2022-09-13T16:06:04;9.25;;;3.97;;
15536;SDS011;7870;52.448;13.270;2022-09-13T16:08:32;6.47;;;3.65;;
15536;SDS011;7870;52.448;13.270;2022-09-13T16:10:58;5.40;;;3.53;;
15536;SDS011;7870;52.448;13.270;2022-09-13T16:13:26;5.40;;;4.00;;
15536;SDS011;7870;52.448;13.270;2022-09-13T16:15:52;5.10;;;3.95;;
15536;SDS011;7870;52.448;13.270;2022-09-13T16:18:23;4.57;;;3.75;;
15536;SDS011;7870;52.448;13.270;2022-09-13T16:20:49;5.90;;;3.65;;
15536;SDS011;7870;52.448;13.270;2022-09-13T16:23:16;6.15;;;4.10;;
15536;SDS011;7870;52.448;13.270;2022-09-13T16:25:42;5.30;;;3.80;;
15536;SDS011;7870;52.448;13.270;2022-09-13T16:28:14;7.93;;;3.80;;
15536;SDS011;7870;52.448;13.270;2022-09-13T16:30:42;5.35;;;3.80;;
15536;SDS011;7870;52.448;13.270;2022-09-13T16:33:08;5.45;;;4.00;;
15536;SDS011;7870;52.448;13.270;2022-09-13T16:35:35;3.92;;;3.53;;
15536;SDS011;7870;52.448;13.270;2022-09-13T16:38:02;4.15;;;3.72;;
15536;SDS011;7870;52.448;13.270;2022-09-13T16:40:28;5.13;;;3.40;;
15536;SDS011;7870;52.448;13.270;2022-09-13T16:42:55;4.53;;;3.80;;
15536;SDS011;7870;52.448;13.270;2022-09-13T16:45:21;4.22;;;3.72;;
15536;SDS011;7870;52.448;13.270;2022-09-13T16:47:48;5.20;;;4.53;;
15536;SDS011;7870;52.448;13.270;2022-09-13T16:50:16;5.70;;;4.47;;
15536;SDS011;7870;52.448;13.270;2022-09-13T16:52:42;5.00;;;4.05;;
15536;SDS011;7870;52.448;13.270;2022-09-13T16:55:09;4.97;;;3.90;;
15536;SDS011;7870;52.448;13.270;2022-09-13T16:57:35;4.78;;;3.83;;
15536;SDS011;7870;52.448;13.270;2022-09-13T17:00:03;4.53;;;3.90;;
15536;SDS011;7870;52.448;13.270;2022-09-13T17:02:33;5.22;;;4.53;;
15536;SDS011;7870;52.448;13.270;2022-09-13T17:05:00;6.82;;;4.18;;
15536;SDS011;7870;52.448;13.270;2022-09-13T17:07:27;5.05;;;3.78;;
15536;SDS011;7870;52.448;13.270;2022-09-13T17:09:53;5.53;;;3.85;;
15536;SDS011;7870;52.448;13.270;2022-09-13T17:12:20;4.18;;;3.67;;
15536;SDS011;7870;52.448;13.270;2022-09-13T17:14:46;4.85;;;3.55;;
15536;SDS011;7870;52.448;13.270;2022-09-13T17:17:13;4.88;;;4.03;;
15536;SDS011;7870;52.448;13.270;2022-09-13T17:19:41;4.30;;;3.72;;
15536;SDS011;7870;52.448;13.270;2022-09-13T17:22:08;5.13;;;4.53;;
15536;SDS011;7870;52.448;13.270;2022-09-13T17:24:36;5.25;;;3.63;;